sensor_id;sensor_type;location;lat;lon;timestamp;P1;durP1;ratioP1;P2;durP2;ratioP2
23181;SDS011;11759;51.282;6.642;2023-02-15T00:00:52;72.30;;;27.52;;
23181;SDS011;11759;51.282;6.642;2023-02-15T00:03:21;73.03;;;29.58;;
23181;SDS011;11759;51.282;6.642;2023-02-15T00:05:48;76.82;;;28.75;;
23181;SDS011;11759;51.282;6.642;2023-02-15T00:08:14;72.07;;;27.63;;
23181;SDS011;11759;51.282;6.642;2023-02-15T00:10:41;68.90;;;26.92;;
23181;SDS011;11759;51.282;6.642;2023-02-15T00:13:07;79.57;;;27.60;;
23181;SDS011;11759;51.282;6.642;2023-02-15T00:15:33;72.95;;;26.27;;
23181;SDS011;11759;51.282;6.642;2023-02-15T00:18:00;77.18;;;27.63;;
23181;SDS011;11759;51.282;6.642;2023-02-15T00:20:27;69.65;;;27.85;;
23181;SDS011;11759;51.282;6.642;2023-02-15T00:22:53;75.05;;;28.30;;
23181;SDS011;11759;51.282;6.642;2023-02-15T00:25:20;78.72;;;27.98;;
23181;SDS011;11759;51.282;6.642;2023-02-15T00:27:46;73.50;;;28.17;;
23181;SDS011;11759;51.282;6.642;2023-02-15T00:30:13;86.15;;;31.25;;
23181;SDS011;11759;51.282;6.642;2023-02-15T00:32:39;69.15;;;26.38;;
23181;SDS011;11759;51.282;6.642;2023-02-15T00:35:06;74.40;;;27.45;;
23181;SDS011;11759;51.282;6.642;2023-02-15T00:37:33;81.07;;;30.02;;
23181;SDS011;11759;51.282;6.642;2023-02-15T00:40:01;72.15;;;26.88;;
23181;SDS011;11759;51.282;6.642;2023-02-15T00:42:29;80.10;;;28.70;;
23181;SDS011;11759;51.282;6.642;2023-02-15T00:44:55;78.53;;;27.05;;
23181;SDS011;11759;51.282;6.642;2023-02-15T00:47:22;70.32;;;25.95;;
23181;SDS011;11759;51.282;6.642;2023-02-15T00:49:50;79.07;;;27.98;;
23181;SDS011;11759;51.282;6.642;2023-02-15T00:52:17;78.85;;;28.08;;
23181;SDS011;11759;51.282;6.642;2023-02-15T00:54:43;75.60;;;28.17;;
23181;SDS011;11759;51.282;6.642;2023-02-15T00:57:10;76.40;;;27.38;;
23181;SDS011;11759;51.282;6.642;2023-02-15T00:59:36;77.55;;;27.70;;
23181;SDS011;11759;51.282;6.642;2023-02-15T01:02:03;78.93;;;27.13;;
23181;SDS011;11759;51.282;6.642;2023-02-15T01:04:30;75.72;;;27.38;;
23181;SDS011;11759;51.282;6.642;2023-02-15T01:06:56;74.90;;;28.10;;
23181;SDS011;11759;51.282;6.642;2023-02-15T01:09:23;87.45;;;29.13;;
23181;SDS011;11759;51.282;6.642;2023-02-15T01:11:50;74.75;;;28.55;;
23181;SDS011;11759;51.282;6.642;2023-02-15T01:14:17;80.55;;;29.13;;
23181;SDS011;11759;51.282;6.642;2023-02-15T01:16:44;82.97;;;28.60;;
23181;SDS011;11759;51.282;6.642;2023-02-15T01:19:10;73.68;;;28.02;;
23181;SDS011;11759;51.282;6.642;2023-02-15T01:21:38;84.65;;;29.20;;
23181;SDS011;11759;51.282;6.642;2023-02-15T01:24:12;79.70;;;27.77;;
23181;SDS011;11759;51.282;6.642;2023-02-15T01:26:39;78.00;;;27.48;;
23181;SDS011;11759;51.282;6.642;2023-02-15T01:29:06;78.03;;;29.90;;
23181;SDS011;11759;51.282;6.642;2023-02-15T01:31:32;76.32;;;29.45;;
23181;SDS011;11759;51.282;6.642;2023-02-15T01:33:59;72.95;;;28.48;;
23181;SDS011;11759;51.282;6.642;2023-02-15T01:36:25;84.32;;;29.05;;
23181;SDS011;11759;51.282;6.642;2023-02-15T01:38:52;77.53;;;28.67;;
23181;SDS011;11759;51.282;6.642;2023-02-15T01:41:18;83.20;;;30.40;;
23181;SDS011;11759;51.282;6.642;2023-02-15T01:44:00;80.78;;;28.20;;
23181;SDS011;11759;51.282;6.642;2023-02-15T01:46:30;82.10;;;28.98;;
23181;SDS011;11759;51.282;6.642;2023-02-15T01:49:08;83.18;;;31.15;;
23181;SDS011;11759;51.282;6.642;2023-02-15T01:51:38;81.13;;;28.42;;
23181;SDS011;11759;51.282;6.642;2023-02-15T01:54:17;89.97;;;28.88;;
23181;SDS011;11759;51.282;6.642;2023-02-15T01:56:45;82.32;;;29.58;;
23181;SDS011;11759;51.282;6.642;2023-02-15T01:59:17;90.38;;;29.73;;
23181;SDS011;11759;51.282;6.642;2023-02-15T02:01:47;75.97;;;28.02;;
23181;SDS011;11759;51.282;6.642;2023-02-15T02:04:18;85.60;;;32.22;;
23181;SDS011;11759;51.282;6.642;2023-02-15T02:06:48;79.10;;;28.90;;
23181;SDS011;11759;51.282;6.642;2023-02-15T02:09:15;83.35;;;29.95;;
23181;SDS011;11759;51.282;6.642;2023-02-15T02:11:42;79.53;;;30.20;;
23181;SDS011;11759;51.282;6.642;2023-02-15T02:14:12;83.53;;;29.20;;
23181;SDS011;11759;51.282;6.642;2023-02-15T02:22:26;76.60;;;28.50;;
23181;SDS011;11759;51.282;6.642;2023-02-15T02:33:54;88.80;;;29.20;;
23181;SDS011;11759;51.282;6.642;2023-02-15T02:36:45;84.47;;;29.77;;
23181;SDS011;11759;51.282;6.642;2023-02-15T02:42:34;72.45;;;27.50;;
23181;SDS011;11759;51.282;6.642;2023-02-15T02:45:08;86.78;;;28.50;;
23181;SDS011;11759;51.282;6.642;2023-02-15T02:47:38;82.88;;;29.33;;
23181;SDS011;11759;51.282;6.642;2023-02-15T02:50:08;80.20;;;28.30;;
23181;SDS011;11759;51.282;6.642;2023-02-15T02:55:14;85.25;;;29.17;;
23181;SDS011;11759;51.282;6.642;2023-02-15T03:00:16;80.65;;;29.38;;
23181;SDS011;11759;51.282;6.642;2023-02-15T03:02:44;86.63;;;29.63;;
23181;SDS011;11759;51.282;6.642;2023-02-15T03:05:13;76.88;;;28.02;;
23181;SDS011;11759;51.282;6.642;2023-02-15T03:10:09;82.55;;;29.02;;
23181;SDS011;11759;51.282;6.642;2023-02-15T03:12:36;78.68;;;29.55;;
23181;SDS011;11759;51.282;6.642;2023-02-15T03:17:36;76.97;;;28.42;;
23181;SDS011;11759;51.282;6.642;2023-02-15T03:20:10;83.80;;;29.40;;
23181;SDS011;11759;51.282;6.642;2023-02-15T03:22:44;91.18;;;28.00;;
23181;SDS011;11759;51.282;6.642;2023-02-15T03:25:48;85.72;;;29.58;;
23181;SDS011;11759;51.282;6.642;2023-02-15T03:28:11;74.35;;;25.65;;
23181;SDS011;11759;51.282;6.642;2023-02-15T03:30:40;87.35;;;29.65;;
23181;SDS011;11759;51.282;6.642;2023-02-15T03:33:08;84.68;;;29.40;;
23181;SDS011;11759;51.282;6.642;2023-02-15T03:35:46;89.20;;;30.85;;
23181;SDS011;11759;51.282;6.642;2023-02-15T03:38:17;90.13;;;29.75;;
23181;SDS011;11759;51.282;6.642;2023-02-15T03:40:47;91.35;;;29.63;;
23181;SDS011;11759;51.282;6.642;2023-02-15T03:43:36;90.75;;;30.88;;
23181;SDS011;11759;51.282;6.642;2023-02-15T03:46:12;93.15;;;29.10;;
23181;SDS011;11759;51.282;6.642;2023-02-15T03:48:44;83.22;;;27.88;;
23181;SDS011;11759;51.282;6.642;2023-02-15T03:51:17;86.65;;;28.95;;
23181;SDS011;11759;51.282;6.642;2023-02-15T03:54:04;86.53;;;29.30;;
23181;SDS011;11759;51.282;6.642;2023-02-15T03:57:30;78.05;;;26.95;;
23181;SDS011;11759;51.282;6.642;2023-02-15T04:00:16;92.18;;;28.70;;
23181;SDS011;11759;51.282;6.642;2023-02-15T04:05:50;84.03;;;29.70;;
23181;SDS011;11759;51.282;6.642;2023-02-15T04:08:16;80.80;;;28.00;;
23181;SDS011;11759;51.282;6.642;2023-02-15T04:10:43;83.97;;;29.52;;
23181;SDS011;11759;51.282;6.642;2023-02-15T04:13:40;78.03;;;26.73;;
23181;SDS011;11759;51.282;6.642;2023-02-15T04:16:05;89.32;;;29.60;;
23181;SDS011;11759;51.282;6.642;2023-02-15T04:18:36;90.25;;;30.00;;
23181;SDS011;11759;51.282;6.642;2023-02-15T04:21:24;87.28;;;28.02;;
23181;SDS011;11759;51.282;6.642;2023-02-15T04:24:10;85.80;;;28.33;;
23181;SDS011;11759;51.282;6.642;2023-02-15T04:26:55;84.35;;;28.63;;
23181;SDS011;11759;51.282;6.642;2023-02-15T04:29:22;68.07;;;25.42;;
23181;SDS011;11759;51.282;6.642;2023-02-15T04:31:50;89.28;;;30.63;;
23181;SDS011;11759;51.282;6.642;2023-02-15T04:34:17;80.47;;;26.75;;
23181;SDS011;11759;51.282;6.642;2023-02-15T04:36:44;92.32;;;31.02;;
23181;SDS011;11759;51.282;6.642;2023-02-15T04:39:14;86.25;;;28.35;;
23181;SDS011;11759;51.282;6.642;2023-02-15T04:41:41;83.43;;;29.15;;
23181;SDS011;11759;51.282;6.642;2023-02-15T04:44:08;75.75;;;27.70;;
23181;SDS011;11759;51.282;6.642;2023-02-15T04:46:35;77.82;;;28.88;;
23181;SDS011;11759;51.282;6.642;2023-02-15T04:49:02;88.43;;;29.50;;
23181;SDS011;11759;51.282;6.642;2023-02-15T04:51:29;79.45;;;27.38;;
23181;SDS011;11759;51.282;6.642;2023-02-15T04:53:55;84.28;;;29.45;;
23181;SDS011;11759;51.282;6.642;2023-02-15T04:56:22;90.68;;;29.38;;
23181;SDS011;11759;51.282;6.642;2023-02-15T04:58:49;78.13;;;28.15;;
23181;SDS011;11759;51.282;6.642;2023-02-15T05:01:15;75.85;;;27.92;;
23181;SDS011;11759;51.282;6.642;2023-02-15T05:03:43;86.75;;;28.90;;
23181;SDS011;11759;51.282;6.642;2023-02-15T05:06:09;73.03;;;27.90;;
23181;SDS011;11759;51.282;6.642;2023-02-15T05:08:36;83.57;;;28.73;;
23181;SDS011;11759;51.282;6.642;2023-02-15T05:11:02;81.63;;;26.08;;
23181;SDS011;11759;51.282;6.642;2023-02-15T05:13:29;79.60;;;26.25;;
23181;SDS011;11759;51.282;6.642;2023-02-15T05:15:55;84.85;;;26.95;;
23181;SDS011;11759;51.282;6.642;2023-02-15T05:18:22;76.45;;;27.17;;
23181;SDS011;11759;51.282;6.642;2023-02-15T05:20:49;76.43;;;25.63;;
23181;SDS011;11759;51.282;6.642;2023-02-15T05:23:15;80.43;;;27.95;;
23181;SDS011;11759;51.282;6.642;2023-02-15T05:25:46;84.13;;;26.27;;
23181;SDS011;11759;51.282;6.642;2023-02-15T05:28:32;89.28;;;27.92;;
23181;SDS011;11759;51.282;6.642;2023-02-15T05:31:03;84.85;;;27.67;;
23181;SDS011;11759;51.282;6.642;2023-02-15T05:33:32;84.05;;;27.75;;
23181;SDS011;11759;51.282;6.642;2023-02-15T05:35:59;77.72;;;28.45;;
23181;SDS011;11759;51.282;6.642;2023-02-15T05:38:27;72.13;;;27.35;;
23181;SDS011;11759;51.282;6.642;2023-02-15T05:40:54;81.13;;;27.55;;
23181;SDS011;11759;51.282;6.642;2023-02-15T05:43:21;78.72;;;26.20;;
23181;SDS011;11759;51.282;6.642;2023-02-15T05:45:48;88.47;;;29.48;;
23181;SDS011;11759;51.282;6.642;2023-02-15T05:48:16;78.97;;;26.40;;
23181;SDS011;11759;51.282;6.642;2023-02-15T05:50:44;89.20;;;28.67;;
23181;SDS011;11759;51.282;6.642;2023-02-15T05:53:11;89.30;;;28.60;;
23181;SDS011;11759;51.282;6.642;2023-02-15T05:55:38;71.47;;;25.45;;
23181;SDS011;11759;51.282;6.642;2023-02-15T05:58:07;80.75;;;25.50;;
23181;SDS011;11759;51.282;6.642;2023-02-15T06:00:34;78.53;;;26.75;;
23181;SDS011;11759;51.282;6.642;2023-02-15T06:03:03;71.43;;;25.75;;
23181;SDS011;11759;51.282;6.642;2023-02-15T06:05:30;73.72;;;25.23;;
23181;SDS011;11759;51.282;6.642;2023-02-15T06:07:56;77.50;;;25.77;;
23181;SDS011;11759;51.282;6.642;2023-02-15T06:10:23;75.18;;;25.63;;
23181;SDS011;11759;51.282;6.642;2023-02-15T06:12:49;71.25;;;26.73;;
23181;SDS011;11759;51.282;6.642;2023-02-15T06:15:16;79.25;;;30.27;;
23181;SDS011;11759;51.282;6.642;2023-02-15T06:17:43;73.22;;;26.88;;
23181;SDS011;11759;51.282;6.642;2023-02-15T06:20:09;63.97;;;23.90;;
23181;SDS011;11759;51.282;6.642;2023-02-15T06:22:36;73.47;;;25.80;;
23181;SDS011;11759;51.282;6.642;2023-02-15T06:25:03;85.25;;;28.55;;
23181;SDS011;11759;51.282;6.642;2023-02-15T06:27:30;73.25;;;27.15;;
23181;SDS011;11759;51.282;6.642;2023-02-15T06:29:56;77.80;;;25.88;;
23181;SDS011;11759;51.282;6.642;2023-02-15T06:32:23;76.53;;;26.25;;
23181;SDS011;11759;51.282;6.642;2023-02-15T06:34:50;74.80;;;25.00;;
23181;SDS011;11759;51.282;6.642;2023-02-15T06:37:17;74.13;;;25.77;;
23181;SDS011;11759;51.282;6.642;2023-02-15T06:39:43;82.25;;;28.10;;
23181;SDS011;11759;51.282;6.642;2023-02-15T06:42:10;77.03;;;26.00;;
23181;SDS011;11759;51.282;6.642;2023-02-15T06:44:37;80.40;;;25.63;;
23181;SDS011;11759;51.282;6.642;2023-02-15T06:47:03;76.05;;;25.73;;
23181;SDS011;11759;51.282;6.642;2023-02-15T06:49:30;69.88;;;25.38;;
23181;SDS011;11759;51.282;6.642;2023-02-15T06:51:56;82.75;;;27.33;;
23181;SDS011;11759;51.282;6.642;2023-02-15T06:54:23;66.88;;;23.88;;
23181;SDS011;11759;51.282;6.642;2023-02-15T06:56:50;73.30;;;25.23;;
23181;SDS011;11759;51.282;6.642;2023-02-15T06:59:16;71.45;;;26.55;;
23181;SDS011;11759;51.282;6.642;2023-02-15T07:01:43;67.28;;;24.80;;
23181;SDS011;11759;51.282;6.642;2023-02-15T07:04:09;69.18;;;26.15;;
23181;SDS011;11759;51.282;6.642;2023-02-15T07:06:36;77.32;;;26.30;;
23181;SDS011;11759;51.282;6.642;2023-02-15T07:09:02;73.18;;;26.05;;
23181;SDS011;11759;51.282;6.642;2023-02-15T07:11:30;74.97;;;25.08;;
23181;SDS011;11759;51.282;6.642;2023-02-15T07:14:15;81.47;;;27.17;;
23181;SDS011;11759;51.282;6.642;2023-02-15T07:16:42;76.32;;;26.20;;
23181;SDS011;11759;51.282;6.642;2023-02-15T07:19:08;78.15;;;26.23;;
23181;SDS011;11759;51.282;6.642;2023-02-15T07:21:35;69.13;;;25.20;;
23181;SDS011;11759;51.282;6.642;2023-02-15T07:24:02;83.00;;;27.23;;
23181;SDS011;11759;51.282;6.642;2023-02-15T07:26:30;78.63;;;26.42;;
23181;SDS011;11759;51.282;6.642;2023-02-15T07:28:58;69.32;;;25.50;;
23181;SDS011;11759;51.282;6.642;2023-02-15T07:31:24;72.05;;;26.02;;
23181;SDS011;11759;51.282;6.642;2023-02-15T07:33:51;72.03;;;25.05;;
23181;SDS011;11759;51.282;6.642;2023-02-15T07:36:17;71.15;;;24.73;;
23181;SDS011;11759;51.282;6.642;2023-02-15T07:38:44;57.65;;;23.95;;
23181;SDS011;11759;51.282;6.642;2023-02-15T07:41:11;63.95;;;23.88;;
23181;SDS011;11759;51.282;6.642;2023-02-15T07:43:40;56.92;;;23.00;;
23181;SDS011;11759;51.282;6.642;2023-02-15T07:46:08;52.30;;;22.30;;
23181;SDS011;11759;51.282;6.642;2023-02-15T07:48:38;55.70;;;22.85;;
23181;SDS011;11759;51.282;6.642;2023-02-15T07:51:06;52.05;;;21.92;;
23181;SDS011;11759;51.282;6.642;2023-02-15T07:53:34;49.83;;;21.83;;
23181;SDS011;11759;51.282;6.642;2023-02-15T07:56:05;48.22;;;20.23;;
23181;SDS011;11759;51.282;6.642;2023-02-15T07:58:41;43.55;;;20.25;;
23181;SDS011;11759;51.282;6.642;2023-02-15T08:01:25;40.50;;;17.83;;
23181;SDS011;11759;51.282;6.642;2023-02-15T08:03:53;50.95;;;20.67;;
23181;SDS011;11759;51.282;6.642;2023-02-15T08:06:24;47.63;;;21.05;;
23181;SDS011;11759;51.282;6.642;2023-02-15T08:08:52;43.17;;;18.83;;
23181;SDS011;11759;51.282;6.642;2023-02-15T08:16:35;47.22;;;20.33;;
23181;SDS011;11759;51.282;6.642;2023-02-15T08:19:06;40.63;;;18.73;;
23181;SDS011;11759;51.282;6.642;2023-02-15T08:21:35;41.22;;;19.63;;
23181;SDS011;11759;51.282;6.642;2023-02-15T08:24:03;42.08;;;18.63;;
23181;SDS011;11759;51.282;6.642;2023-02-15T08:26:30;44.28;;;20.10;;
23181;SDS011;11759;51.282;6.642;2023-02-15T08:28:58;40.67;;;18.08;;
23181;SDS011;11759;51.282;6.642;2023-02-15T08:31:25;43.45;;;18.92;;
23181;SDS011;11759;51.282;6.642;2023-02-15T08:33:53;41.88;;;19.30;;
23181;SDS011;11759;51.282;6.642;2023-02-15T08:36:22;41.38;;;19.65;;
23181;SDS011;11759;51.282;6.642;2023-02-15T08:38:49;37.15;;;18.15;;
23181;SDS011;11759;51.282;6.642;2023-02-15T08:41:17;40.53;;;19.10;;
23181;SDS011;11759;51.282;6.642;2023-02-15T08:43:49;42.00;;;18.45;;
23181;SDS011;11759;51.282;6.642;2023-02-15T08:46:18;36.83;;;16.38;;
23181;SDS011;11759;51.282;6.642;2023-02-15T08:48:45;40.38;;;18.23;;
23181;SDS011;11759;51.282;6.642;2023-02-15T08:51:13;39.63;;;18.15;;
23181;SDS011;11759;51.282;6.642;2023-02-15T08:53:44;42.45;;;19.52;;
23181;SDS011;11759;51.282;6.642;2023-02-15T08:56:12;40.55;;;18.30;;
23181;SDS011;11759;51.282;6.642;2023-02-15T08:58:39;41.63;;;18.92;;
23181;SDS011;11759;51.282;6.642;2023-02-15T09:01:12;39.20;;;19.45;;
23181;SDS011;11759;51.282;6.642;2023-02-15T09:03:44;37.25;;;18.30;;
23181;SDS011;11759;51.282;6.642;2023-02-15T09:06:12;41.75;;;18.85;;
23181;SDS011;11759;51.282;6.642;2023-02-15T09:08:40;38.67;;;17.73;;
23181;SDS011;11759;51.282;6.642;2023-02-15T09:13:37;35.73;;;17.83;;
23181;SDS011;11759;51.282;6.642;2023-02-15T09:16:05;38.70;;;18.05;;
23181;SDS011;11759;51.282;6.642;2023-02-15T09:18:34;38.20;;;18.63;;
23181;SDS011;11759;51.282;6.642;2023-02-15T09:21:10;42.43;;;19.43;;
23181;SDS011;11759;51.282;6.642;2023-02-15T09:23:41;43.42;;;19.00;;
23181;SDS011;11759;51.282;6.642;2023-02-15T09:26:10;42.55;;;19.58;;
23181;SDS011;11759;51.282;6.642;2023-02-15T09:28:38;46.63;;;19.15;;
23181;SDS011;11759;51.282;6.642;2023-02-15T09:33:33;39.00;;;18.13;;
23181;SDS011;11759;51.282;6.642;2023-02-15T09:36:00;44.08;;;18.40;;
23181;SDS011;11759;51.282;6.642;2023-02-15T09:38:27;40.20;;;18.73;;
23181;SDS011;11759;51.282;6.642;2023-02-15T09:43:43;43.03;;;19.38;;
23181;SDS011;11759;51.282;6.642;2023-02-15T09:46:24;39.15;;;19.00;;
23181;SDS011;11759;51.282;6.642;2023-02-15T09:49:04;43.87;;;18.73;;
23181;SDS011;11759;51.282;6.642;2023-02-15T09:56:51;43.10;;;19.40;;
23181;SDS011;11759;51.282;6.642;2023-02-15T09:59:45;38.15;;;18.50;;
23181;SDS011;11759;51.282;6.642;2023-02-15T10:02:38;43.63;;;18.10;;
23181;SDS011;11759;51.282;6.642;2023-02-15T10:05:25;38.03;;;18.00;;
23181;SDS011;11759;51.282;6.642;2023-02-15T10:16:07;35.38;;;17.83;;
23181;SDS011;11759;51.282;6.642;2023-02-15T10:19:04;36.28;;;15.57;;
23181;SDS011;11759;51.282;6.642;2023-02-15T10:21:45;39.88;;;17.33;;
23181;SDS011;11759;51.282;6.642;2023-02-15T10:24:29;38.28;;;17.02;;
23181;SDS011;11759;51.282;6.642;2023-02-15T10:27:23;42.25;;;16.77;;
23181;SDS011;11759;51.282;6.642;2023-02-15T10:30:07;37.22;;;18.33;;
23181;SDS011;11759;51.282;6.642;2023-02-15T10:32:42;35.38;;;17.90;;
23181;SDS011;11759;51.282;6.642;2023-02-15T10:35:31;37.00;;;17.33;;
23181;SDS011;11759;51.282;6.642;2023-02-15T10:38:20;37.97;;;17.52;;
23181;SDS011;11759;51.282;6.642;2023-02-15T10:52:17;36.78;;;16.65;;
23181;SDS011;11759;51.282;6.642;2023-02-15T10:55:13;35.60;;;18.40;;
23181;SDS011;11759;51.282;6.642;2023-02-15T10:58:07;33.03;;;16.23;;
23181;SDS011;11759;51.282;6.642;2023-02-15T11:00:45;37.17;;;16.60;;
23181;SDS011;11759;51.282;6.642;2023-02-15T11:06:08;32.88;;;17.20;;
23181;SDS011;11759;51.282;6.642;2023-02-15T11:08:40;43.38;;;18.33;;
23181;SDS011;11759;51.282;6.642;2023-02-15T11:11:10;33.78;;;16.67;;
23181;SDS011;11759;51.282;6.642;2023-02-15T11:13:45;36.25;;;17.08;;
23181;SDS011;11759;51.282;6.642;2023-02-15T11:16:22;31.15;;;16.88;;
23181;SDS011;11759;51.282;6.642;2023-02-15T11:18:59;36.67;;;16.73;;
23181;SDS011;11759;51.282;6.642;2023-02-15T11:21:36;36.78;;;17.15;;
23181;SDS011;11759;51.282;6.642;2023-02-15T11:24:09;33.67;;;16.10;;
23181;SDS011;11759;51.282;6.642;2023-02-15T11:26:42;33.42;;;16.52;;
23181;SDS011;11759;51.282;6.642;2023-02-15T11:31:53;28.20;;;14.45;;
23181;SDS011;11759;51.282;6.642;2023-02-15T11:36:59;33.20;;;16.48;;
23181;SDS011;11759;51.282;6.642;2023-02-15T11:39:28;38.67;;;16.75;;
23181;SDS011;11759;51.282;6.642;2023-02-15T11:41:55;33.13;;;15.98;;
23181;SDS011;11759;51.282;6.642;2023-02-15T11:47:18;31.27;;;15.73;;
23181;SDS011;11759;51.282;6.642;2023-02-15T11:49:44;32.47;;;15.27;;
23181;SDS011;11759;51.282;6.642;2023-02-15T11:52:12;32.92;;;15.88;;
23181;SDS011;11759;51.282;6.642;2023-02-15T11:54:41;28.27;;;14.88;;
23181;SDS011;11759;51.282;6.642;2023-02-15T11:59:39;29.20;;;15.48;;
23181;SDS011;11759;51.282;6.642;2023-02-15T12:02:17;29.42;;;16.00;;
23181;SDS011;11759;51.282;6.642;2023-02-15T12:04:50;33.90;;;15.82;;
23181;SDS011;11759;51.282;6.642;2023-02-15T12:07:24;38.83;;;16.23;;
23181;SDS011;11759;51.282;6.642;2023-02-15T12:09:55;35.60;;;16.77;;
23181;SDS011;11759;51.282;6.642;2023-02-15T12:12:31;35.03;;;16.88;;
23181;SDS011;11759;51.282;6.642;2023-02-15T12:14:59;31.77;;;14.70;;
23181;SDS011;11759;51.282;6.642;2023-02-15T12:17:35;32.38;;;16.02;;
23181;SDS011;11759;51.282;6.642;2023-02-15T12:22:51;32.67;;;15.05;;
23181;SDS011;11759;51.282;6.642;2023-02-15T12:25:21;33.30;;;15.60;;
23181;SDS011;11759;51.282;6.642;2023-02-15T12:27:50;31.15;;;16.30;;
23181;SDS011;11759;51.282;6.642;2023-02-15T12:30:21;28.35;;;14.68;;
23181;SDS011;11759;51.282;6.642;2023-02-15T12:32:52;33.55;;;15.93;;
23181;SDS011;11759;51.282;6.642;2023-02-15T12:38:03;26.50;;;14.65;;
23181;SDS011;11759;51.282;6.642;2023-02-15T12:40:36;31.13;;;15.70;;
23181;SDS011;11759;51.282;6.642;2023-02-15T12:43:04;27.83;;;14.85;;
23181;SDS011;11759;51.282;6.642;2023-02-15T12:45:35;32.40;;;16.25;;
23181;SDS011;11759;51.282;6.642;2023-02-15T12:50:39;31.20;;;16.15;;
23181;SDS011;11759;51.282;6.642;2023-02-15T12:53:11;35.00;;;16.20;;
23181;SDS011;11759;51.282;6.642;2023-02-15T12:55:38;30.27;;;15.50;;
23181;SDS011;11759;51.282;6.642;2023-02-15T12:58:17;32.88;;;16.70;;
23181;SDS011;11759;51.282;6.642;2023-02-15T13:01:01;33.08;;;15.05;;
23181;SDS011;11759;51.282;6.642;2023-02-15T13:03:54;35.08;;;15.93;;
23181;SDS011;11759;51.282;6.642;2023-02-15T13:06:31;34.08;;;16.48;;
23181;SDS011;11759;51.282;6.642;2023-02-15T13:09:06;28.90;;;14.50;;
23181;SDS011;11759;51.282;6.642;2023-02-15T13:11:38;40.55;;;16.15;;
23181;SDS011;11759;51.282;6.642;2023-02-15T13:14:18;36.75;;;15.48;;
23181;SDS011;11759;51.282;6.642;2023-02-15T13:16:45;32.33;;;16.15;;
23181;SDS011;11759;51.282;6.642;2023-02-15T13:21:53;36.05;;;14.80;;
23181;SDS011;11759;51.282;6.642;2023-02-15T13:24:24;36.08;;;15.35;;
23181;SDS011;11759;51.282;6.642;2023-02-15T13:26:52;33.40;;;16.70;;
23181;SDS011;11759;51.282;6.642;2023-02-15T13:29:38;32.13;;;15.07;;
23181;SDS011;11759;51.282;6.642;2023-02-15T13:35:03;37.28;;;15.77;;
23181;SDS011;11759;51.282;6.642;2023-02-15T13:40:24;35.85;;;15.40;;
23181;SDS011;11759;51.282;6.642;2023-02-15T13:43:04;29.02;;;13.65;;
23181;SDS011;11759;51.282;6.642;2023-02-15T13:45:39;32.95;;;15.38;;
23181;SDS011;11759;51.282;6.642;2023-02-15T13:56:18;38.13;;;15.60;;
23181;SDS011;11759;51.282;6.642;2023-02-15T14:01:45;28.10;;;14.48;;
23181;SDS011;11759;51.282;6.642;2023-02-15T14:07:18;36.78;;;14.23;;
23181;SDS011;11759;51.282;6.642;2023-02-15T14:10:17;28.95;;;14.23;;
23181;SDS011;11759;51.282;6.642;2023-02-15T14:13:14;39.00;;;15.63;;
23181;SDS011;11759;51.282;6.642;2023-02-15T14:16:19;37.50;;;15.18;;
23181;SDS011;11759;51.282;6.642;2023-02-15T14:18:59;29.63;;;15.20;;
23181;SDS011;11759;51.282;6.642;2023-02-15T14:21:47;31.35;;;14.90;;
23181;SDS011;11759;51.282;6.642;2023-02-15T14:29:49;28.08;;;14.32;;
23181;SDS011;11759;51.282;6.642;2023-02-15T14:32:21;33.78;;;14.32;;
23181;SDS011;11759;51.282;6.642;2023-02-15T14:34:53;32.63;;;14.75;;
23181;SDS011;11759;51.282;6.642;2023-02-15T14:37:27;28.17;;;14.93;;
23181;SDS011;11759;51.282;6.642;2023-02-15T14:40:18;31.48;;;14.68;;
23181;SDS011;11759;51.282;6.642;2023-02-15T14:45:58;34.47;;;14.70;;
23181;SDS011;11759;51.282;6.642;2023-02-15T14:48:33;32.38;;;15.10;;
23181;SDS011;11759;51.282;6.642;2023-02-15T14:51:05;29.65;;;15.15;;
23181;SDS011;11759;51.282;6.642;2023-02-15T14:53:33;29.98;;;14.88;;
23181;SDS011;11759;51.282;6.642;2023-02-15T14:58:58;34.25;;;15.88;;
23181;SDS011;11759;51.282;6.642;2023-02-15T15:01:30;38.78;;;16.45;;
23181;SDS011;11759;51.282;6.642;2023-02-15T15:04:00;38.08;;;15.60;;
23181;SDS011;11759;51.282;6.642;2023-02-15T15:06:30;32.13;;;15.20;;
23181;SDS011;11759;51.282;6.642;2023-02-15T15:09:00;30.80;;;15.90;;
23181;SDS011;11759;51.282;6.642;2023-02-15T15:14:47;30.10;;;15.57;;
23181;SDS011;11759;51.282;6.642;2023-02-15T15:22:40;31.17;;;14.13;;
23181;SDS011;11759;51.282;6.642;2023-02-15T15:25:09;32.88;;;15.18;;
23181;SDS011;11759;51.282;6.642;2023-02-15T15:27:56;28.92;;;14.10;;
23181;SDS011;11759;51.282;6.642;2023-02-15T15:38:45;27.55;;;13.43;;
23181;SDS011;11759;51.282;6.642;2023-02-15T15:49:56;34.55;;;14.90;;
23181;SDS011;11759;51.282;6.642;2023-02-15T15:52:23;38.60;;;15.10;;
23181;SDS011;11759;51.282;6.642;2023-02-15T15:54:56;31.15;;;14.70;;
23181;SDS011;11759;51.282;6.642;2023-02-15T15:57:34;30.77;;;14.75;;
23181;SDS011;11759;51.282;6.642;2023-02-15T16:00:02;28.98;;;13.80;;
23181;SDS011;11759;51.282;6.642;2023-02-15T16:02:48;29.85;;;15.07;;
23181;SDS011;11759;51.282;6.642;2023-02-15T16:05:16;36.65;;;14.13;;
23181;SDS011;11759;51.282;6.642;2023-02-15T16:07:43;35.50;;;15.10;;
23181;SDS011;11759;51.282;6.642;2023-02-15T16:10:23;32.58;;;14.63;;
23181;SDS011;11759;51.282;6.642;2023-02-15T16:12:54;31.45;;;14.98;;
23181;SDS011;11759;51.282;6.642;2023-02-15T16:15:22;29.50;;;14.73;;
23181;SDS011;11759;51.282;6.642;2023-02-15T16:17:55;32.20;;;14.52;;
23181;SDS011;11759;51.282;6.642;2023-02-15T16:20:26;31.17;;;14.38;;
23181;SDS011;11759;51.282;6.642;2023-02-15T16:28:35;27.10;;;13.57;;
23181;SDS011;11759;51.282;6.642;2023-02-15T16:31:06;33.17;;;14.70;;
23181;SDS011;11759;51.282;6.642;2023-02-15T16:33:39;31.23;;;14.80;;
23181;SDS011;11759;51.282;6.642;2023-02-15T16:36:27;32.47;;;15.70;;
23181;SDS011;11759;51.282;6.642;2023-02-15T16:41:29;28.15;;;14.77;;
23181;SDS011;11759;51.282;6.642;2023-02-15T16:43:57;35.80;;;14.23;;
23181;SDS011;11759;51.282;6.642;2023-02-15T16:46:29;34.25;;;15.13;;
23181;SDS011;11759;51.282;6.642;2023-02-15T16:48:58;31.02;;;15.63;;
23181;SDS011;11759;51.282;6.642;2023-02-15T16:51:28;35.70;;;15.05;;
23181;SDS011;11759;51.282;6.642;2023-02-15T16:53:56;32.72;;;16.08;;
23181;SDS011;11759;51.282;6.642;2023-02-15T16:56:27;36.90;;;15.30;;
23181;SDS011;11759;51.282;6.642;2023-02-15T16:58:56;33.28;;;15.43;;
23181;SDS011;11759;51.282;6.642;2023-02-15T17:01:24;34.60;;;15.50;;
23181;SDS011;11759;51.282;6.642;2023-02-15T17:07:14;31.20;;;14.70;;
23181;SDS011;11759;51.282;6.642;2023-02-15T17:09:50;35.72;;;14.90;;
23181;SDS011;11759;51.282;6.642;2023-02-15T17:12:43;39.75;;;15.80;;
23181;SDS011;11759;51.282;6.642;2023-02-15T17:15:25;32.72;;;14.95;;
23181;SDS011;11759;51.282;6.642;2023-02-15T17:18:05;30.42;;;14.82;;
23181;SDS011;11759;51.282;6.642;2023-02-15T17:20:35;29.15;;;13.98;;
23181;SDS011;11759;51.282;6.642;2023-02-15T17:23:04;32.35;;;14.27;;
23181;SDS011;11759;51.282;6.642;2023-02-15T17:25:36;28.83;;;14.60;;
23181;SDS011;11759;51.282;6.642;2023-02-15T17:28:04;39.35;;;14.77;;